Time;durP1;ratioP1;P1;durP2;ratioP2;P2;SDS_P1;SDS_P2;PMS_P1;PMS_P2;Temp;Humidity;BMP_temperature;BMP_pressure;BME280_temperature;BME280_humidity;BME280_pressure;Samples;Min_cycle;Max_cycle;Signal;HPM_P1;HPM_P2
2023/09/05 00:00:17;;;;;;;7.88;7.00;;;461.00;2380.80;;;;;;5029989;28;20029;-60
2023/09/05 00:02:45;;;;;;;7.80;6.13;;;461.00;2380.80;;;;;;5029559;28;20479;-60
2023/09/05 00:05:12;;;;;;;7.70;6.00;;;461.00;2380.80;;;;;;5030103;28;20026;-59
2023/09/05 00:07:40;;;;;;;8.73;6.60;;;461.00;2380.80;;;;;;5029510;28;20467;-59
2023/09/05 00:10:13;;;;;;;9.02;6.10;;;460.90;2380.80;;;;;;5029373;28;20052;-59
2023/09/05 00:12:40;;;;;;;9.07;6.55;;;460.90;2380.80;;;;;;5029340;28;20029;-59
2023/09/05 00:15:14;;;;;;;6.55;5.93;;;460.90;2380.80;;;;;;5029131;28;20033;-59
2023/09/05 00:17:41;;;;;;;7.28;5.93;;;461.00;2380.80;;;;;;5029406;28;20498;-59
2023/09/05 00:20:08;;;;;;;7.60;6.28;;;460.80;2380.80;;;;;;5026399;28;20053;-60
2023/09/05 00:22:34;;;;;;;8.23;5.18;;;460.90;2380.80;;;;;;5019782;28;20111;-59
2023/09/05 00:25:00;;;;;;;11.82;6.32;;;460.90;2380.80;;;;;;5029391;28;20072;-60
2023/09/05 00:27:26;;;;;;;8.40;6.30;;;460.90;2380.80;;;;;;5029221;28;20543;-60
2023/09/05 00:29:52;;;;;;;11.88;6.35;;;461.00;2380.80;;;;;;5029000;28;20401;-60
2023/09/05 00:32:18;;;;;;;12.35;6.53;;;461.00;2380.80;;;;;;5028868;28;20057;-60
2023/09/05 00:34:44;;;;;;;10.07;6.43;;;460.90;2380.80;;;;;;5028659;28;20072;-60
2023/09/05 00:37:11;;;;;;;8.93;6.70;;;460.90;2380.80;;;;;;5029529;28;20032;-60
2023/09/05 00:39:44;;;;;;;12.13;6.25;;;460.80;2380.80;;;;;;5029087;28;20052;-60
2023/09/05 00:42:10;;;;;;;9.63;7.13;;;460.80;2380.80;;;;;;5029127;28;20041;-60
2023/09/05 00:44:37;;;;;;;8.75;5.75;;;460.80;2380.80;;;;;;5015391;28;20040;-60
2023/09/05 00:47:04;;;;;;;8.63;6.40;;;460.80;2380.80;;;;;;5029191;28;20480;-60
2023/09/05 00:49:39;;;;;;;6.85;5.60;;;460.80;2380.80;;;;;;5028343;28;20045;-60
2023/09/05 00:52:06;;;;;;;8.93;6.32;;;460.90;2380.80;;;;;;5029118;28;20666;-60
2023/09/05 00:54:34;;;;;;;9.10;6.00;;;460.90;2380.80;;;;;;5029006;28;20117;-60
2023/09/05 00:57:00;;;;;;;10.38;6.28;;;461.00;2380.80;;;;;;5028455;28;20104;-60
2023/09/05 00:59:26;;;;;;;12.30;6.03;;;460.90;2380.80;;;;;;5028627;28;20361;-60
2023/09/05 01:01:54;;;;;;;9.25;6.18;;;461.00;2380.80;;;;;;5015680;28;20154;-60
2023/09/05 01:04:21;;;;;;;8.55;5.78;;;461.30;2380.80;;;;;;5029071;28;20025;-60
2023/09/05 01:07:00;;;;;;;7.05;5.80;;;461.00;2380.80;;;;;;5028719;28;20024;-60
2023/09/05 01:09:56;;;;;;;9.98;6.05;;;460.90;2380.80;;;;;;5028464;28;20022;-60
2023/09/05 01:12:23;;;;;;;8.20;6.15;;;460.90;2380.80;;;;;;5022614;28;20042;-60
2023/09/05 01:14:49;;;;;;;10.10;6.57;;;460.90;2380.80;;;;;;5021878;28;20083;-60
2023/09/05 01:17:14;;;;;;;9.05;6.00;;;460.90;2380.80;;;;;;5022402;28;20300;-60
2023/09/05 01:19:41;;;;;;;10.93;5.65;;;460.90;2380.80;;;;;;5022250;28;20463;-60
2023/09/05 01:22:16;;;;;;;10.93;5.82;;;461.00;2380.80;;;;;;5028301;28;20116;-60
2023/09/05 01:24:43;;;;;;;10.95;5.90;;;461.00;2380.80;;;;;;5028204;28;20021;-60
2023/09/05 01:27:10;;;;;;;8.45;6.07;;;460.90;2380.80;;;;;;5028474;28;20105;-60
2023/09/05 01:29:38;;;;;;;15.90;6.22;;;460.90;2380.80;;;;;;5028478;28;20021;-60
2023/09/05 01:32:05;;;;;;;9.60;5.97;;;460.90;2380.80;;;;;;5028831;28;20095;-60
2023/09/05 01:34:31;;;;;;;8.55;5.95;;;460.80;2380.80;;;;;;5028460;28;20475;-60
2023/09/05 01:36:57;;;;;;;7.50;5.40;;;460.90;2380.80;;;;;;5028383;28;20120;-60
2023/09/05 01:39:24;;;;;;;8.02;6.00;;;460.80;2380.80;;;;;;5015391;28;20018;-59
2023/09/05 01:41:50;;;;;;;6.45;5.50;;;460.80;2380.80;;;;;;5028125;28;20079;-59
2023/09/05 01:44:16;;;;;;;7.40;6.65;;;460.80;2380.80;;;;;;5028369;28;20372;-60
2023/09/05 01:46:41;;;;;;;7.53;6.07;;;460.90;2380.80;;;;;;5031979;28;20020;-60
2023/09/05 01:49:07;;;;;;;8.48;6.40;;;460.80;2380.80;;;;;;5032028;28;20064;-59
2023/09/05 01:51:33;;;;;;;8.75;6.47;;;460.80;2380.80;;;;;;5032289;28;20503;-59
2023/09/05 01:53:59;;;;;;;10.10;6.85;;;436.10;2355.20;;;;;;5031805;28;20033;-60
2023/09/05 01:56:25;;;;;;;9.65;6.38;;;436.10;2355.20;;;;;;5032097;28;20418;-60
2023/09/05 01:58:50;;;;;;;7.93;5.93;;;436.10;2355.20;;;;;;5031670;28;20025;-60
2023/09/05 02:01:16;;;;;;;6.85;5.38;;;436.10;2355.20;;;;;;5032245;28;20029;-61
2023/09/05 02:03:42;;;;;;;8.20;5.97;;;460.80;2380.80;;;;;;5031712;28;20018;-60
2023/09/05 02:06:07;;;;;;;9.57;5.70;;;460.80;2380.80;;;;;;5031816;28;20021;-60
2023/09/05 02:08:36;;;;;;;10.32;5.97;;;460.80;2380.80;;;;;;5031290;28;20049;-60
2023/09/05 02:11:02;;;;;;;7.95;6.40;;;460.80;2380.80;;;;;;5031505;28;20091;-60
2023/09/05 02:13:31;;;;;;;7.78;5.95;;;436.10;2355.20;;;;;;5031308;28;20411;-60
2023/09/05 02:15:57;;;;;;;8.35;5.60;;;436.10;2355.20;;;;;;5032065;28;20414;-60
2023/09/05 02:18:22;;;;;;;7.20;5.85;;;436.10;2355.20;;;;;;5031867;28;20080;-60
2023/09/05 02:20:48;;;;;;;8.88;5.80;;;436.10;2355.20;;;;;;5031439;28;20100;-60
2023/09/05 02:23:14;;;;;;;8.93;5.75;;;460.80;2380.80;;;;;;5031372;28;20045;-60
2023/09/05 02:25:40;;;;;;;6.93;5.03;;;460.80;2380.80;;;;;;5031392;28;20080;-61
2023/09/05 02:28:05;;;;;;;8.95;5.72;;;460.80;2380.80;;;;;;5030958;28;20024;-60
2023/09/05 02:30:32;;;;;;;12.55;6.00;;;460.90;2380.80;;;;;;5031645;28;20046;-60
2023/09/05 02:32:57;;;;;;;8.15;5.65;;;460.90;2380.80;;;;;;5031076;28;20025;-60
2023/09/05 02:35:24;;;;;;;11.27;5.57;;;460.80;2380.80;;;;;;5031590;28;20025;-60
2023/09/05 02:37:51;;;;;;;8.82;5.15;;;460.80;2380.80;;;;;;5031131;28;20041;-60
2023/09/05 02:40:17;;;;;;;7.57;6.50;;;460.80;2380.80;;;;;;5031101;28;20383;-60
2023/09/05 02:42:43;;;;;;;9.02;5.55;;;436.10;2355.20;;;;;;5031097;28;20033;-60
2023/09/05 02:45:10;;;;;;;7.30;5.65;;;436.00;2355.20;;;;;;5031096;28;20511;-59
2023/09/05 02:47:36;;;;;;;9.73;5.80;;;436.00;2355.20;;;;;;5030799;28;20636;-60
2023/09/05 02:50:02;;;;;;;8.05;5.18;;;436.00;2355.20;;;;;;5031352;28;20171;-60
2023/09/05 02:52:29;;;;;;;13.65;6.13;;;435.90;2355.20;;;;;;5031148;28;20033;-60
2023/09/05 02:54:55;;;;;;;6.53;5.25;;;435.90;2355.20;;;;;;5030762;28;20036;-60
2023/09/05 02:57:21;;;;;;;7.85;5.72;;;435.90;2355.20;;;;;;5030001;28;20021;-60
2023/09/05 02:59:50;;;;;;;13.10;5.85;;;435.90;2355.20;;;;;;5021786;28;20028;-60
2023/09/05 03:02:16;;;;;;;9.77;6.57;;;435.90;2355.20;;;;;;5027331;28;20030;-61
2023/09/05 03:04:42;;;;;;;8.90;6.25;;;435.90;2355.20;;;;;;5030804;28;20494;-60
2023/09/05 03:07:07;;;;;;;12.48;6.68;;;435.80;2355.20;;;;;;5030852;28;20021;-59
2023/09/05 03:09:33;;;;;;;12.68;6.32;;;435.70;2355.20;;;;;;5030609;28;20106;-60
2023/09/05 03:11:59;;;;;;;8.20;6.25;;;435.70;2355.20;;;;;;5030071;28;20082;-61
2023/09/05 03:14:25;;;;;;;13.35;6.90;;;435.70;2355.20;;;;;;5030635;28;20030;-60
2023/09/05 03:16:51;;;;;;;7.88;5.50;;;435.70;2355.20;;;;;;5030542;28;20018;-60
2023/09/05 03:19:19;;;;;;;9.25;6.25;;;435.80;2355.20;;;;;;5030443;28;20083;-60
2023/09/05 03:21:45;;;;;;;10.05;6.07;;;435.70;2355.20;;;;;;5030246;28;20079;-60
2023/09/05 03:24:11;;;;;;;7.75;5.88;;;435.70;2355.20;;;;;;5030621;28;20039;-60
2023/09/05 03:26:37;;;;;;;6.85;6.10;;;435.70;2355.20;;;;;;5030472;28;20017;-60
2023/09/05 03:29:02;;;;;;;11.18;5.70;;;435.80;2355.20;;;;;;5030413;28;20129;-60
2023/09/05 03:31:28;;;;;;;8.05;6.05;;;435.70;2355.20;;;;;;5027013;28;20033;-59
2023/09/05 03:33:55;;;;;;;8.82;6.45;;;435.60;2355.20;;;;;;5021044;28;20539;-60
2023/09/05 03:36:21;;;;;;;8.30;5.90;;;435.60;2355.20;;;;;;5030149;28;20026;-59
2023/09/05 03:38:47;;;;;;;12.48;6.88;;;435.50;2355.20;;;;;;5030181;28;20025;-59
2023/09/05 03:41:13;;;;;;;7.18;5.80;;;435.50;2355.20;;;;;;5029989;28;20036;-60
2023/09/05 03:43:39;;;;;;;9.68;6.60;;;435.40;2355.20;;;;;;5030043;28;20022;-60
2023/09/05 03:46:04;;;;;;;9.15;5.78;;;435.50;2355.20;;;;;;5029649;28;20518;-60
2023/09/05 03:48:30;;;;;;;10.25;5.75;;;435.50;2355.20;;;;;;5030277;28;20376;-59
2023/09/05 03:50:56;;;;;;;7.10;5.63;;;435.50;2355.20;;;;;;5029605;28;20045;-59
2023/09/05 03:53:22;;;;;;;8.45;5.80;;;435.50;2355.20;;;;;;5030553;28;20032;-60
2023/09/05 03:55:47;;;;;;;7.35;6.00;;;435.50;2355.20;;;;;;5029784;28;20414;-61
2023/09/05 03:58:13;;;;;;;7.82;5.60;;;435.50;2355.20;;;;;;5030155;28;20030;-59
2023/09/05 04:00:39;;;;;;;6.63;5.72;;;435.60;2355.20;;;;;;5029508;28;20383;-60
2023/09/05 04:03:05;;;;;;;6.57;5.38;;;435.60;2355.20;;;;;;5029567;28;20022;-60
2023/09/05 04:05:33;;;;;;;7.90;6.30;;;435.60;2355.20;;;;;;5030269;28;20022;-60
2023/09/05 04:08:00;;;;;;;8.13;6.75;;;435.60;2355.20;;;;;;5029486;28;20071;-60
2023/09/05 04:10:25;;;;;;;6.63;5.43;;;435.60;2355.20;;;;;;5028799;28;20392;-60
2023/09/05 04:12:51;;;;;;;6.82;5.97;;;435.60;2355.20;;;;;;5029368;28;20083;-59
2023/09/05 04:15:21;;;;;;;9.10;5.57;;;435.60;2355.20;;;;;;5029120;28;20021;-61
2023/09/05 04:17:47;;;;;;;9.77;5.78;;;435.70;2355.20;;;;;;5029185;28;20064;-61
2023/09/05 04:20:13;;;;;;;7.93;5.22;;;435.70;2355.20;;;;;;5029426;28;20018;-60
2023/09/05 04:22:39;;;;;;;9.98;6.18;;;435.60;2355.20;;;;;;5029636;28;20032;-60
2023/09/05 04:25:06;;;;;;;7.22;5.50;;;435.70;2355.20;;;;;;5029583;28;20525;-60
2023/09/05 04:27:32;;;;;;;8.32;5.53;;;435.70;2355.20;;;;;;5029422;28;20032;-60
2023/09/05 04:29:58;;;;;;;10.55;5.85;;;435.60;2355.20;;;;;;5028892;28;20033;-59
2023/09/05 04:32:28;;;;;;;7.82;6.10;;;435.70;2355.20;;;;;;5029234;28;20092;-60
2023/09/05 04:34:59;;;;;;;9.68;5.90;;;460.80;2380.80;;;;;;5029315;28;20468;-59
2023/09/05 04:37:25;;;;;;;7.88;5.80;;;435.70;2355.20;;;;;;5029305;28;20104;-60
2023/09/05 04:39:51;;;;;;;8.75;5.95;;;435.60;2355.20;;;;;;5028825;28;20227;-59
2023/09/05 04:42:17;;;;;;;8.23;6.10;;;435.70;2355.20;;;;;;5028288;28;20487;-61
2023/09/05 04:44:42;;;;;;;9.60;5.78;;;435.70;2355.20;;;;;;5029391;28;20052;-60
2023/09/05 04:47:24;;;;;;;10.88;6.18;;;435.70;2355.20;;;;;;5028509;28;20533;-60
2023/09/05 04:49:58;;;;;;;7.57;5.72;;;435.70;2355.20;;;;;;5028944;28;20025;-59
2023/09/05 04:52:29;;;;;;;8.43;5.00;;;435.70;2355.20;;;;;;5015666;28;20026;-59
2023/09/05 04:54:55;;;;;;;8.50;6.00;;;435.60;2355.20;;;;;;5028343;28;20053;-60
2023/09/05 04:57:21;;;;;;;9.43;5.60;;;435.70;2355.20;;;;;;5015937;28;20431;-61
2023/09/05 04:59:47;;;;;;;7.65;5.72;;;435.80;2355.20;;;;;;5028576;28;20112;-61
2023/09/05 05:02:17;;;;;;;8.13;5.47;;;435.80;2355.20;;;;;;5027475;28;20032;-58
2023/09/05 05:04:43;;;;;;;8.00;5.80;;;435.90;2355.20;;;;;;5027584;28;20022;-60
2023/09/05 05:07:09;;;;;;;9.43;5.72;;;435.80;2355.20;;;;;;5027345;28;20503;-60
2023/09/05 05:09:35;;;;;;;16.88;6.00;;;435.90;2355.20;;;;;;5027072;28;20037;-60
2023/09/05 05:12:01;;;;;;;6.75;5.55;;;436.00;2355.20;;;;;;5026937;28;20039;-59
2023/09/05 05:14:28;;;;;;;8.13;6.05;;;436.10;2355.20;;;;;;5026961;28;20408;-60
2023/09/05 05:16:54;;;;;;;8.77;5.25;;;436.10;2355.20;;;;;;5026591;28;20040;-60
2023/09/05 05:19:21;;;;;;;8.32;5.95;;;436.00;2355.20;;;;;;5027300;28;20468;-61
2023/09/05 05:21:48;;;;;;;6.85;5.22;;;436.00;2355.20;;;;;;5030623;28;20057;-60
2023/09/05 05:24:14;;;;;;;6.28;5.28;;;436.10;2355.20;;;;;;5030851;28;20387;-59
2023/09/05 05:26:40;;;;;;;9.70;5.45;;;436.10;2355.20;;;;;;5031206;28;20470;-60
2023/09/05 05:29:06;;;;;;;6.88;5.22;;;460.80;2380.80;;;;;;5032330;28;20029;-60
2023/09/05 05:31:33;;;;;;;7.88;5.25;;;461.00;2380.80;;;;;;5032168;28;20091;-59
2023/09/05 05:33:59;;;;;;;7.32;4.80;;;461.30;2380.80;;;;;;5032790;28;20399;-61
2023/09/05 05:36:26;;;;;;;7.22;5.50;;;486.70;2380.80;;;;;;5032476;28;20034;-61
2023/09/05 05:38:52;;;;;;;6.60;4.80;;;487.10;2380.80;;;;;;5032285;28;20032;-60
2023/09/05 05:41:18;;;;;;;6.65;5.15;;;487.20;2380.80;;;;;;5032218;28;20030;-61
2023/09/05 05:43:44;;;;;;;7.18;5.80;;;487.30;2380.80;;;;;;5032281;28;20475;-61
2023/09/05 05:46:10;;;;;;;7.65;6.38;;;487.20;2380.80;;;;;;5032028;28;20469;-61
2023/09/05 05:48:36;;;;;;;8.65;6.40;;;487.20;2380.80;;;;;;5032102;28;20030;-61
2023/09/05 05:51:02;;;;;;;9.00;6.25;;;487.10;2380.80;;;;;;5032376;28;20044;-60
2023/09/05 05:53:28;;;;;;;8.68;5.78;;;487.20;2380.80;;;;;;5031896;28;20539;-62
2023/09/05 05:55:54;;;;;;;8.25;6.15;;;512.00;2380.80;;;;;;5031849;28;20056;-60
2023/09/05 05:58:20;;;;;;;8.73;5.47;;;512.70;2380.80;;;;;;5032126;28;20034;-61
2023/09/05 06:00:52;;;;;;;9.68;5.05;;;512.90;2380.80;;;;;;5031827;28;20440;-61
2023/09/05 06:03:18;;;;;;;9.20;5.30;;;537.70;2406.40;;;;;;5031686;28;20052;-60
2023/09/05 06:05:44;;;;;;;6.45;5.38;;;589.00;2432.00;;;;;;5031744;28;20376;-61
2023/09/05 06:08:11;;;;;;;7.32;5.72;;;563.60;2432.00;;;;;;5031952;28;20025;-61
2023/09/05 06:10:36;;;;;;;9.20;7.20;;;563.80;2432.00;;;;;;5031279;28;20120;-60
2023/09/05 06:13:04;;;;;;;12.30;6.57;;;538.50;2406.40;;;;;;5031300;28;20108;-60
2023/09/05 06:15:30;;;;;;;9.77;6.80;;;538.00;2406.40;;;;;;5031761;28;20048;-61
2023/09/05 06:17:56;;;;;;;8.82;5.88;;;537.60;2406.40;;;;;;5031303;28;20218;-60
2023/09/05 06:20:21;;;;;;;7.75;6.50;;;512.50;2380.80;;;;;;5014751;28;20667;-60
2023/09/05 06:22:47;;;;;;;10.07;7.22;;;512.00;2380.80;;;;;;5010346;28;20029;-60
2023/09/05 06:25:13;;;;;;;7.85;6.00;;;512.10;2380.80;;;;;;5010208;28;20104;-60
2023/09/05 06:27:43;;;;;;;8.45;5.90;;;512.00;2380.80;;;;;;5018552;28;20017;-60
2023/09/05 06:30:09;;;;;;;6.65;5.68;;;487.10;2380.80;;;;;;5028689;28;20045;-61
2023/09/05 06:32:35;;;;;;;6.43;5.38;;;486.90;2380.80;;;;;;5027862;28;20112;-60
2023/09/05 06:35:01;;;;;;;8.38;6.07;;;486.80;2380.80;;;;;;5029534;28;20132;-61
2023/09/05 06:37:29;;;;;;;10.27;5.32;;;486.80;2380.80;;;;;;5029911;28;20029;-60
2023/09/05 06:39:56;;;;;;;7.10;5.47;;;486.70;2380.80;;;;;;5028822;28;20396;-59
2023/09/05 06:42:21;;;;;;;11.20;6.35;;;486.60;2380.80;;;;;;5029204;28;20038;-59
2023/09/05 06:44:48;;;;;;;7.20;5.00;;;486.40;2380.80;;;;;;5028208;28;20045;-59
2023/09/05 06:47:14;;;;;;;7.05;5.30;;;486.40;2380.80;;;;;;5029280;28;20033;-59
2023/09/05 06:49:39;;;;;;;7.32;5.35;;;461.60;2380.80;;;;;;5029030;28;20044;-61
2023/09/05 06:52:05;;;;;;;8.70;5.18;;;461.60;2380.80;;;;;;5029886;28;20037;-60
2023/09/05 06:54:32;;;;;;;8.85;5.15;;;461.50;2380.80;;;;;;5028798;28;20032;-60
2023/09/05 06:56:58;;;;;;;8.93;5.97;;;461.50;2380.80;;;;;;5028598;28;20080;-60
2023/09/05 06:59:24;;;;;;;7.85;6.25;;;461.50;2380.80;;;;;;5028314;28;20493;-59
2023/09/05 07:01:49;;;;;;;7.85;5.53;;;461.50;2380.80;;;;;;5028140;28;20152;-59
2023/09/05 07:04:15;;;;;;;8.82;6.20;;;461.60;2380.80;;;;;;5028754;28;20113;-59
2023/09/05 07:06:41;;;;;;;12.05;5.90;;;461.60;2380.80;;;;;;5029506;28;20035;-60
2023/09/05 07:09:07;;;;;;;8.55;5.13;;;461.60;2380.80;;;;;;5028123;28;20029;-59
2023/09/05 07:11:36;;;;;;;8.07;5.20;;;486.40;2380.80;;;;;;5028232;28;20049;-60
2023/09/05 07:14:02;;;;;;;9.23;5.43;;;486.70;2380.80;;;;;;5028637;28;20484;-59
2023/09/05 07:16:27;;;;;;;8.77;5.45;;;487.20;2380.80;;;;;;5028656;28;20037;-59
2023/09/05 07:18:53;;;;;;;9.38;5.28;;;512.10;2380.80;;;;;;5028708;28;20025;-60
2023/09/05 07:21:19;;;;;;;8.52;6.18;;;512.30;2380.80;;;;;;5028222;28;20375;-61
2023/09/05 07:23:44;;;;;;;11.70;5.22;;;512.50;2380.80;;;;;;5028523;28;20097;-60
2023/09/05 07:26:10;;;;;;;6.70;5.57;;;512.60;2380.80;;;;;;5028823;28;20394;-59
2023/09/05 07:28:36;;;;;;;7.57;5.55;;;512.70;2380.80;;;;;;5028360;28;20571;-60
2023/09/05 07:31:02;;;;;;;9.20;6.00;;;512.60;2380.80;;;;;;5028658;28;20479;-60
2023/09/05 07:33:28;;;;;;;6.22;5.55;;;512.80;2380.80;;;;;;5027930;28;20018;-60
2023/09/05 07:35:54;;;;;;;13.02;6.25;;;512.90;2380.80;;;;;;5028113;28;20519;-60
2023/09/05 07:38:21;;;;;;;8.48;5.60;;;537.80;2406.40;;;;;;5027317;28;20550;-59
2023/09/05 07:40:50;;;;;;;8.45;5.70;;;538.00;2406.40;;;;;;5027794;28;20360;-61
2023/09/05 07:43:15;;;;;;;5.53;4.88;;;538.40;2406.40;;;;;;5027173;28;20682;-61
2023/09/05 07:45:41;;;;;;;9.13;5.40;;;538.20;2406.40;;;;;;5028124;28;20048;-60
2023/09/05 07:48:08;;;;;;;11.52;5.82;;;538.10;2406.40;;;;;;5026045;28;20034;-60
2023/09/05 07:50:35;;;;;;;7.28;5.65;;;537.90;2406.40;;;;;;5027397;28;20855;-60
2023/09/05 07:53:01;;;;;;;9.00;5.60;;;538.00;2406.40;;;;;;5022933;28;20495;-60
2023/09/05 07:55:26;;;;;;;14.27;6.47;;;563.60;2432.00;;;;;;5023435;28;20037;-60
2023/09/05 07:57:52;;;;;;;9.43;6.30;;;564.10;2432.00;;;;;;5028174;28;20021;-62
2023/09/05 08:00:19;;;;;;;9.93;5.80;;;563.80;2432.00;;;;;;5027410;28;20472;-61
2023/09/05 08:02:45;;;;;;;8.45;5.72;;;563.90;2432.00;;;;;;5027900;28;20112;-62
2023/09/05 08:05:11;;;;;;;8.43;5.60;;;563.90;2432.00;;;;;;5027355;28;20129;-61
2023/09/05 08:07:40;;;;;;;8.35;5.80;;;563.70;2432.00;;;;;;5028326;28;20076;-61
2023/09/05 08:10:07;;;;;;;9.15;5.85;;;563.40;2432.00;;;;;;5028033;28;20029;-61
2023/09/05 08:12:32;;;;;;;7.60;5.95;;;563.50;2432.00;;;;;;5029620;28;20554;-60
2023/09/05 08:14:58;;;;;;;7.15;5.88;;;563.60;2432.00;;;;;;5028991;28;20041;-61
2023/09/05 08:17:24;;;;;;;7.93;5.97;;;563.60;2432.00;;;;;;5030047;28;20022;-60
2023/09/05 08:19:49;;;;;;;8.18;5.75;;;563.60;2432.00;;;;;;5029216;28;20519;-60
2023/09/05 08:22:15;;;;;;;7.85;6.13;;;563.50;2432.00;;;;;;5029131;28;20025;-61
2023/09/05 08:24:41;;;;;;;6.15;5.38;;;563.60;2432.00;;;;;;5029184;28;20032;-61
2023/09/05 08:27:15;;;;;;;6.15;5.35;;;563.80;2432.00;;;;;;5029551;28;20156;-61
2023/09/05 08:29:41;;;;;;;7.90;5.93;;;589.10;2432.00;;;;;;5029585;28;20029;-60
2023/09/05 08:32:07;;;;;;;7.65;6.85;;;589.40;2432.00;;;;;;5028761;28;20514;-63
2023/09/05 08:34:33;;;;;;;7.68;6.00;;;640.20;2432.00;;;;;;5029346;28;20030;-61
2023/09/05 08:36:59;;;;;;;8.70;6.85;;;691.20;2329.60;;;;;;5029068;28;20028;-60
2023/09/05 08:39:26;;;;;;;7.18;6.32;;;717.30;2150.40;;;;;;5028821;28;20025;-62
2023/09/05 08:41:52;;;;;;;8.95;7.05;;;743.30;1971.20;;;;;;5029076;28;20036;-60
2023/09/05 08:44:18;;;;;;;7.40;6.70;;;768.80;1894.40;;;;;;5028491;28;20022;-61
2023/09/05 08:46:45;;;;;;;9.05;6.63;;;793.60;1894.40;;;;;;5029547;28;20400;-61
2023/09/05 08:49:11;;;;;;;8.25;6.78;;;794.20;1817.60;;;;;;5015659;28;20047;-60
2023/09/05 08:51:40;;;;;;;6.18;5.57;;;768.10;1868.80;;;;;;5029008;28;20043;-61
2023/09/05 08:54:09;;;;;;;5.82;5.28;;;742.60;1920.00;;;;;;5028378;28;20021;-63
2023/09/05 08:56:34;;;;;;;6.93;5.95;;;716.90;1971.20;;;;;;5028786;28;20034;-61
2023/09/05 08:59:01;;;;;;;7.65;6.38;;;691.50;2048.00;;;;;;5029117;28;20483;-61
2023/09/05 09:01:29;;;;;;;8.75;6.18;;;691.20;2048.00;;;;;;5028704;28;20024;-61
2023/09/05 09:03:55;;;;;;;9.68;6.22;;;691.30;2022.40;;;;;;5028251;28;20016;-61
2023/09/05 09:06:25;;;;;;;7.05;5.78;;;666.20;2073.60;;;;;;5028990;28;20063;-61
2023/09/05 09:08:53;;;;;;;8.77;6.40;;;666.00;2073.60;;;;;;5028621;28;20017;-61
2023/09/05 09:11:22;;;;;;;7.90;7.10;;;666.20;2099.20;;;;;;5028424;28;20487;-61
2023/09/05 09:13:52;;;;;;;8.13;6.57;;;666.10;2073.60;;;;;;5028227;28;20067;-62
2023/09/05 09:16:18;;;;;;;12.07;7.32;;;666.00;2048.00;;;;;;5028772;28;20018;-61
2023/09/05 09:18:59;;;;;;;8.57;7.18;;;665.70;2073.60;;;;;;5025757;28;20025;-61
2023/09/05 09:21:28;;;;;;;7.10;6.30;;;691.30;2048.00;;;;;;5026614;28;20030;-62
2023/09/05 09:23:59;;;;;;;7.40;6.70;;;691.80;1971.20;;;;;;5027259;28;20060;-60
2023/09/05 09:26:26;;;;;;;8.23;6.85;;;691.90;1996.80;;;;;;5026898;28;20044;-61
2023/09/05 09:28:52;;;;;;;7.22;5.93;;;691.40;2073.60;;;;;;5024137;28;20017;-62
2023/09/05 09:31:26;;;;;;;8.95;7.07;;;691.40;2022.40;;;;;;5026671;28;20029;-61
2023/09/05 09:33:57;;;;;;;13.40;7.50;;;691.30;2048.00;;;;;;5012646;28;20035;-61
2023/09/05 09:36:23;;;;;;;8.32;7.32;;;665.80;2073.60;;;;;;5027314;28;20029;-61
2023/09/05 09:38:48;;;;;;;9.15;7.05;;;640.20;2150.40;;;;;;5026674;28;20026;-61
2023/09/05 09:41:16;;;;;;;8.57;7.45;;;640.20;2201.60;;;;;;5026947;28;20033;-60
2023/09/05 09:43:41;;;;;;;7.10;6.40;;;615.00;2227.20;;;;;;5026181;28;20040;-61
2023/09/05 09:46:10;;;;;;;7.90;6.75;;;640.40;2176.00;;;;;;5026793;28;20057;-62
2023/09/05 09:48:36;;;;;;;8.95;6.75;;;665.60;2150.40;;;;;;5026671;28;20108;-61
2023/09/05 09:51:06;;;;;;;7.32;6.63;;;640.70;2099.20;;;;;;5027097;28;20083;-61
2023/09/05 09:53:38;;;;;;;9.75;6.78;;;665.60;2150.40;;;;;;5026761;28;20033;-61
2023/09/05 09:56:11;;;;;;;7.50;6.78;;;666.10;2201.60;;;;;;5026738;28;20033;-61
2023/09/05 09:58:40;;;;;;;9.15;7.20;;;666.30;2201.60;;;;;;5026605;28;20029;-62
2023/09/05 10:01:13;;;;;;;8.38;7.18;;;666.00;2150.40;;;;;;5026565;28;20029;-63
2023/09/05 10:03:40;;;;;;;9.13;7.07;;;640.70;2124.80;;;;;;5025890;28;20032;-61
2023/09/05 10:06:07;;;;;;;7.88;6.38;;;640.70;2150.40;;;;;;5019470;28;20038;-63
2023/09/05 10:08:34;;;;;;;11.65;7.15;;;640.70;2176.00;;;;;;5025486;28;20025;-63
2023/09/05 10:11:00;;;;;;;8.98;7.82;;;640.20;2201.60;;;;;;5029807;28;20041;-62
2023/09/05 10:13:30;;;;;;;13.38;7.65;;;640.40;2227.20;;;;;;5030143;28;20033;-63
2023/09/05 10:15:56;;;;;;;10.65;8.00;;;615.30;2252.80;;;;;;5029739;28;20079;-62
2023/09/05 10:18:23;;;;;;;7.70;6.90;;;614.90;2278.40;;;;;;5010461;28;20037;-62
2023/09/05 10:20:54;;;;;;;11.20;7.15;;;615.20;2304.00;;;;;;5010502;28;20535;-62
2023/09/05 10:23:23;;;;;;;9.45;7.15;;;615.30;2304.00;;;;;;5009938;28;20028;-62
2023/09/05 10:25:50;;;;;;;8.32;7.53;;;640.20;2304.00;;;;;;5010351;28;20437;-62
2023/09/05 10:28:16;;;;;;;8.85;7.15;;;640.10;2278.40;;;;;;5010496;28;20040;-63
2023/09/05 10:30:47;;;;;;;8.30;7.50;;;640.20;2278.40;;;;;;5010345;28;20369;-62
2023/09/05 10:33:15;;;;;;;9.82;7.57;;;640.20;2304.00;;;;;;5010435;28;20443;-62
2023/09/05 10:35:45;;;;;;;8.35;7.38;;;640.20;2252.80;;;;;;5009786;28;20384;-63
2023/09/05 10:38:13;;;;;;;9.70;7.65;;;614.80;2329.60;;;;;;5010351;28;20026;-62
2023/09/05 10:40:39;;;;;;;8.18;6.63;;;615.20;2329.60;;;;;;5022283;28;20030;-62
2023/09/05 10:43:18;;;;;;;7.60;6.60;;;640.30;2329.60;;;;;;5023478;28;20423;-63
2023/09/05 10:45:44;;;;;;;8.30;7.43;;;640.20;2304.00;;;;;;5011446;28;20499;-63
2023/09/05 10:48:30;;;;;;;7.85;6.47;;;615.30;2329.60;;;;;;5021307;28;20114;-63
2023/09/05 10:51:13;;;;;;;7.85;6.30;;;615.10;2355.20;;;;;;5014342;28;20045;-64
2023/09/05 10:53:43;;;;;;;;;;;615.10;2355.20;;;;;;5014464;28;20032;-63
2023/09/05 10:56:40;;;;;;;8.52;6.45;;;615.10;2355.20;;;;;;5009513;28;19910;-63
2023/09/05 10:59:10;;;;;;;7.50;6.43;;;615.20;2355.20;;;;;;5016578;28;20072;-63
2023/09/05 11:01:43;;;;;;;8.18;6.85;;;615.10;2329.60;;;;;;5028162;28;20017;-63
2023/09/05 11:04:16;;;;;;;;;;;640.00;2432.00;;;;;;5029637;28;20113;-62
2023/09/05 11:06:59;;;;;;;7.68;6.88;;;640.20;2329.60;;;;;;5017179;28;19916;-63
2023/09/05 11:09:25;;;;;;;7.25;6.55;;;640.40;2304.00;;;;;;5026222;28;20049;-63
2023/09/05 11:11:52;;;;;;;6.70;6.10;;;640.20;2304.00;;;;;;5018994;28;20510;-63
2023/09/05 11:14:38;;;;;;;8.15;6.68;;;640.70;2278.40;;;;;;5028626;28;20616;-62
2023/09/05 11:17:04;;;;;;;8.57;6.22;;;640.40;2201.60;;;;;;5029166;28;20025;-63
2023/09/05 11:19:47;;;;;;;9.50;6.82;;;615.30;2252.80;;;;;;5022686;28;20149;-63
2023/09/05 11:22:25;;;;;;;7.45;6.13;;;615.00;2278.40;;;;;;5024193;28;20033;-63
2023/09/05 11:24:53;;;;;;;7.63;5.68;;;615.20;2329.60;;;;;;5028861;28;20064;-62
2023/09/05 11:27:25;;;;;;;8.52;6.40;;;640.00;2252.80;;;;;;5028572;28;20578;-64
2023/09/05 11:29:55;;;;;;;7.43;6.55;;;615.30;2278.40;;;;;;5028680;28;20061;-63
2023/09/05 11:32:29;;;;;;;7.68;6.25;;;615.30;2252.80;;;;;;5028873;28;20092;-62
2023/09/05 11:34:55;;;;;;;7.00;6.10;;;640.40;2252.80;;;;;;5029065;28;20456;-63
2023/09/05 11:37:21;;;;;;;7.65;5.70;;;640.60;2201.60;;;;;;5028795;28;20182;-64
2023/09/05 11:39:51;;;;;;;7.95;6.32;;;640.70;2201.60;;;;;;5028520;28;20044;-63
2023/09/05 11:42:30;;;;;;;8.80;6.63;;;640.70;2201.60;;;;;;5015151;28;20021;-63
2023/09/05 11:44:57;;;;;;;7.97;6.10;;;640.70;2201.60;;;;;;5017276;28;20101;-63
2023/09/05 11:47:24;;;;;;;9.23;7.07;;;665.90;2176.00;;;;;;5014966;28;20057;-63
2023/09/05 11:49:52;;;;;;;8.00;7.22;;;666.10;2201.60;;;;;;5028468;28;20029;-62
2023/09/05 11:52:20;;;;;;;7.75;6.95;;;666.00;2124.80;;;;;;5027876;28;20034;-63
2023/09/05 11:54:48;;;;;;;19.58;16.90;;;640.70;2124.80;;;;;;5027657;28;20451;-63
2023/09/05 11:57:17;;;;;;;10.13;7.88;;;640.80;2150.40;;;;;;5028378;28;20013;-63
2023/09/05 11:59:42;;;;;;;8.85;7.57;;;665.70;2176.00;;;;;;5028306;28;20033;-63
2023/09/05 12:02:09;;;;;;;10.80;7.75;;;666.30;2150.40;;;;;;5028154;28;20033;-62
2023/09/05 12:04:36;;;;;;;11.57;7.25;;;666.20;2150.40;;;;;;5028365;28;20021;-64
2023/09/05 12:07:06;;;;;;;9.00;7.40;;;666.00;2150.40;;;;;;5025707;28;20021;-63
2023/09/05 12:09:32;;;;;;;8.30;6.90;;;665.80;2150.40;;;;;;5017356;28;20115;-64
2023/09/05 12:12:15;;;;;;;8.43;7.55;;;666.00;2150.40;;;;;;5027682;28;21063;-64
2023/09/05 12:14:51;;;;;;;9.63;6.72;;;666.50;2124.80;;;;;;5027718;28;20083;-64
2023/09/05 12:17:22;;;;;;;9.70;7.95;;;691.40;2124.80;;;;;;5027901;28;20081;-63